Time;durP1;ratioP1;P1;durP2;ratioP2;P2;SDS_P1;SDS_P2;PMS_P1;PMS_P2;Temp;Humidity;BMP_temperature;BMP_pressure;BME280_temperature;BME280_humidity;BME280_pressure;Samples;Min_cycle;Max_cycle;Signal;HPM_P1;HPM_P2
2022/12/25 00:00:04;;;;;;;;;;;;;;;21.03;30.90;97766.25;5097821;28;959;-78
2022/12/25 00:02:29;;;;;;;;;;;;;;;20.87;31.12;97780.44;5097297;28;1095;-78
2022/12/25 00:04:55;;;;;;;;;;;;;;;21.27;30.90;97787.38;5097016;28;1693;-78
2022/12/25 00:07:20;;;;;;;;;;;;;;;21.28;30.55;97788.97;5097669;28;1913;-78
2022/12/25 00:09:46;;;;;;;;;;;;;;;21.83;29.56;97795.44;5097597;28;982;-78
2022/12/25 00:12:11;;;;;;;;;;;;;;;21.42;30.08;97810.44;5098708;28;843;-78
2022/12/25 00:14:36;;;;;;;;;;;;;;;21.16;30.80;97809.53;5095310;28;1485;-78
2022/12/25 00:17:02;;;;;;;;;;;;;;;20.99;31.01;97808.00;5098695;28;1001;-78
2022/12/25 00:19:27;;;;;;;;;;;;;;;21.25;30.81;97811.72;5096703;28;934;-78
2022/12/25 00:21:53;;;;;;;;;;;;;;;21.52;30.10;97820.66;5098530;28;1057;-79
2022/12/25 00:24:18;;;;;;;;;;;;;;;21.65;29.86;97829.16;5097562;28;944;-78
2022/12/25 00:26:44;;;;;;;;;;;;;;;21.13;30.73;97833.03;5078328;28;1979;-78
2022/12/25 00:29:10;;;;;;;;;;;;;;;20.98;30.85;97834.66;5077194;28;937;-79
2022/12/25 00:31:37;;;;;;;;;;;;;;;20.90;30.92;97836.91;5056292;28;1000;-78
2022/12/25 00:34:02;;;;;;;;;;;;;;;21.30;30.82;97836.66;5061569;28;1158;-78
2022/12/25 00:36:28;;;;;;;;;;;;;;;21.40;30.47;97840.41;5077398;28;1501;-78
2022/12/25 00:38:53;;;;;;;;;;;;;;;21.61;29.92;97837.00;5081339;28;1395;-79
2022/12/25 00:42:17;;;;;;;;;;;;;;;21.24;30.40;97839.22;5082341;28;922;-79
2022/12/25 00:44:05;;;;;;;;;;;;;;;20.97;30.76;97835.91;5067595;28;1024;-79
2022/12/25 00:46:31;;;;;;;;;;;;;;;20.95;30.89;97832.75;5081993;28;1979;-78
2022/12/25 00:48:57;;;;;;;;;;;;;;;21.19;30.67;97839.78;5081331;28;1044;-78
2022/12/25 00:51:23;;;;;;;;;;;;;;;21.56;30.23;97848.88;5082308;28;1013;-79
2022/12/25 00:53:48;;;;;;;;;;;;;;;21.62;29.82;97841.41;5081609;28;946;-79
2022/12/25 00:56:14;;;;;;;;;;;;;;;21.32;30.04;97846.28;5081440;28;1521;-79
2022/12/25 00:58:39;;;;;;;;;;;;;;;21.01;30.70;97842.28;5081329;28;1031;-79
2022/12/25 01:01:05;;;;;;;;;;;;;;;21.05;30.50;97849.44;5066097;28;1309;-78
2022/12/25 01:03:30;;;;;;;;;;;;;;;21.16;30.66;97854.78;5101220;28;1137;-78
2022/12/25 01:05:59;;;;;;;;;;;;;;;21.52;29.91;97848.19;5103495;28;1913;-78
2022/12/25 01:08:25;;;;;;;;;;;;;;;21.65;29.65;97853.84;5102448;28;979;-79
2022/12/25 01:10:54;;;;;;;;;;;;;;;21.30;29.97;97848.78;5105038;28;944;-79
2022/12/25 01:13:20;;;;;;;;;;;;;;;21.13;30.38;97852.84;5102524;28;892;-78
2022/12/25 01:15:45;;;;;;;;;;;;;;;21.07;30.35;97846.16;5094756;28;1459;-78
2022/12/25 01:18:11;;;;;;;;;;;;;;;20.90;31.16;97853.88;5083587;28;948;-78
2022/12/25 01:20:36;;;;;;;;;;;;;;;21.42;30.00;97849.28;5084249;28;912;-79
2022/12/25 01:23:01;;;;;;;;;;;;;;;21.44;30.07;97846.78;5084030;28;799;-79
2022/12/25 01:25:28;;;;;;;;;;;;;;;21.63;29.89;97859.97;5089888;28;1918;-78
2022/12/25 01:27:54;;;;;;;;;;;;;;;21.51;29.70;97857.91;5102692;28;1326;-79
2022/12/25 01:30:20;;;;;;;;;;;;;;;21.23;30.15;97854.59;5103907;28;1092;-78
2022/12/25 01:32:45;;;;;;;;;;;;;;;20.94;30.76;97851.75;5104010;28;924;-78
2022/12/25 01:35:11;;;;;;;;;;;;;;;21.20;30.53;97855.50;5086723;28;1543;-78
2022/12/25 01:37:36;;;;;;;;;;;;;;;21.70;29.55;97859.75;5083669;28;933;-79
2022/12/25 01:40:01;;;;;;;;;;;;;;;21.51;29.65;97863.59;5083201;28;927;-78
2022/12/25 01:42:27;;;;;;;;;;;;;;;21.28;29.95;97859.72;5065094;28;1220;-79
2022/12/25 01:44:52;;;;;;;;;;;;;;;21.02;30.67;97867.28;5093408;28;1384;-79
2022/12/25 01:47:18;;;;;;;;;;;;;;;20.94;30.49;97865.09;5101021;28;1917;-79
2022/12/25 01:49:45;;;;;;;;;;;;;;;21.25;30.41;97866.28;5098811;28;994;-78
2022/12/25 01:52:11;;;;;;;;;;;;;;;21.43;30.06;97867.84;5099544;28;993;-78
2022/12/25 01:54:38;;;;;;;;;;;;;;;21.41;29.66;97864.66;5099157;28;1600;-78
2022/12/25 01:57:05;;;;;;;;;;;;;;;21.19;30.38;97870.06;5101181;28;914;-78
2022/12/25 01:59:30;;;;;;;;;;;;;;;21.14;30.25;97879.09;5100111;28;870;-78
2022/12/25 02:01:56;;;;;;;;;;;;;;;21.49;29.76;97872.50;5099573;28;1100;-78
2022/12/25 02:04:37;;;;;;;;;;;;;;;21.56;29.66;97871.53;5099222;28;1460;-78
2022/12/25 02:07:06;;;;;;;;;;;;;;;21.49;29.56;97866.03;5100823;28;1977;-78
2022/12/25 02:09:31;;;;;;;;;;;;;;;21.42;29.41;97872.72;5098251;28;939;-78
2022/12/25 02:11:57;;;;;;;;;;;;;;;21.13;29.51;97875.47;5099349;28;1087;-78
2022/12/25 02:14:26;;;;;;;;;;;;;;;20.96;29.88;97873.94;5097520;28;2131;-78
2022/12/25 02:16:55;;;;;;;;;;;;;;;20.87;30.05;97879.41;5099324;28;884;-79
2022/12/25 02:19:28;;;;;;;;;;;;;;;20.79;30.41;97882.44;5098382;28;965;-78
2022/12/25 02:22:12;;;;;;;;;;;;;;;21.14;29.90;97891.25;5098768;28;947;-78
2022/12/25 02:24:40;;;;;;;;;;;;;;;21.27;29.73;97888.47;5097412;28;1722;-79
2022/12/25 02:27:17;;;;;;;;;;;;;;;21.20;29.19;97889.47;5096245;28;1890;-78
2022/12/25 02:30:00;;;;;;;;;;;;;;;20.89;29.70;97885.44;5098438;28;1180;-79
2022/12/25 02:32:27;;;;;;;;;;;;;;;20.92;29.81;97885.31;5099246;28;933;-78
2022/12/25 02:35:04;;;;;;;;;;;;;;;21.16;29.61;97883.09;5084662;28;1486;-78
2022/12/25 02:37:32;;;;;;;;;;;;;;;21.25;29.17;97891.75;5078397;28;1016;-78
2022/12/25 02:40:01;;;;;;;;;;;;;;;21.35;29.08;97894.75;5078918;28;1117;-78
2022/12/25 03:06:41;;;;;;;;;;;;;;;21.06;29.75;97895.47;5079449;28;918;-79
2022/12/25 03:07:07;;;;;;;;;;;;;;;21.37;29.27;97910.06;5098292;28;1909;-78
2022/12/25 03:12:36;;;;;;;;;;;;;;;21.40;29.36;97902.69;5098567;28;1051;-78
2022/12/25 03:17:47;;;;;;;;;;;;;;;20.93;29.70;97908.75;5097952;28;1503;-79
2022/12/25 03:28:24;;;;;;;;;;;;;;;21.38;29.02;97916.50;5097192;28;986;-79
2022/12/25 03:31:10;;;;;;;;;;;;;;;21.07;29.38;97914.84;5088092;28;1613;-79
2022/12/25 03:33:39;;;;;;;;;;;;;;;20.89;30.06;97917.34;5076539;28;947;-78
2022/12/25 03:36:19;;;;;;;;;;;;;;;21.27;29.80;97916.75;5078568;28;1048;-78
2022/12/25 04:36:12;;;;;;;;;;;;;;;21.36;29.02;97998.25;5097947;28;907;-78
2022/12/25 04:38:38;;;;;;;;;;;;;;;21.50;28.58;97997.84;5096078;28;1745;-79
2022/12/25 04:41:03;;;;;;;;;;;;;;;21.24;28.68;98003.34;5096745;28;967;-78
2022/12/25 04:43:29;;;;;;;;;;;;;;;20.92;29.48;98006.16;5096460;28;955;-79
2022/12/25 04:45:54;;;;;;;;;;;;;;;20.81;29.44;98004.38;5096418;28;2637;-78
2022/12/25 04:48:20;;;;;;;;;;;;;;;20.80;29.78;98008.44;5097049;28;916;-78
2022/12/25 04:50:45;;;;;;;;;;;;;;;21.20;29.16;98013.16;5095855;28;1564;-79
2022/12/25 04:53:11;;;;;;;;;;;;;;;21.37;28.90;98016.81;5096143;28;1632;-78
2022/12/25 04:55:36;;;;;;;;;;;;;;;21.40;28.82;98022.38;5096636;28;1452;-79
2022/12/25 04:58:02;;;;;;;;;;;;;;;21.20;29.02;98016.78;5096039;28;1514;-79
2022/12/25 05:00:27;;;;;;;;;;;;;;;21.01;29.40;98024.09;5084260;28;1431;-79
2022/12/25 05:02:52;;;;;;;;;;;;;;;21.16;29.13;98026.59;5086597;28;1237;-78
2022/12/25 05:05:18;;;;;;;;;;;;;;;21.29;28.70;98024.63;5093405;28;1235;-78
2022/12/25 05:07:44;;;;;;;;;;;;;;;21.46;28.37;98028.31;5096140;28;1894;-79
2022/12/25 05:10:09;;;;;;;;;;;;;;;21.46;28.50;98026.28;5095942;28;1322;-78
2022/12/25 05:12:35;;;;;;;;;;;;;;;21.02;29.20;98030.56;5065408;28;1218;-78
2022/12/25 05:15:00;;;;;;;;;;;;;;;20.94;29.13;98029.94;5029011;28;1246;-79
2022/12/25 05:17:26;;;;;;;;;;;;;;;21.17;29.17;98031.81;5063741;28;1260;-78
2022/12/25 05:19:51;;;;;;;;;;;;;;;21.33;28.74;98039.53;5067277;28;1224;-78
2022/12/25 05:22:17;;;;;;;;;;;;;;;21.68;27.97;98037.84;5044571;28;1209;-78
2022/12/25 05:24:42;;;;;;;;;;;;;;;21.41;28.55;98040.16;5062671;28;1279;-79
2022/12/25 05:27:07;;;;;;;;;;;;;;;20.93;28.95;98045.28;5058448;28;1910;-78
2022/12/25 05:29:33;;;;;;;;;;;;;;;20.69;29.54;98047.47;5040956;28;1277;-79
2022/12/25 05:31:58;;;;;;;;;;;;;;;21.40;28.60;98044.22;5041657;28;993;-78
2022/12/25 05:34:24;;;;;;;;;;;;;;;21.43;28.38;98043.34;5058084;28;1083;-78
2022/12/25 05:36:49;;;;;;;;;;;;;;;21.53;28.43;98048.72;5068295;28;1094;-79
2022/12/25 05:39:15;;;;;;;;;;;;;;;21.57;27.97;98048.66;5067503;28;1280;-79
2022/12/25 05:41:40;;;;;;;;;;;;;;;21.15;28.75;98051.28;5064777;28;1245;-78
2022/12/25 05:44:05;;;;;;;;;;;;;;;21.07;28.74;98052.66;5089025;28;1226;-78
2022/12/25 05:46:31;;;;;;;;;;;;;;;21.14;29.04;98061.00;5072040;28;1910;-78
2022/12/25 05:48:56;;;;;;;;;;;;;;;21.16;28.74;98064.19;5089333;28;1232;-78
2022/12/25 05:51:22;;;;;;;;;;;;;;;21.24;28.97;98064.78;5099685;28;1246;-78
2022/12/25 05:53:47;;;;;;;;;;;;;;;21.19;28.66;98060.47;5098959;28;1239;-78
2022/12/25 05:56:13;;;;;;;;;;;;;;;21.01;29.09;98068.56;5099391;28;1184;-79
2022/12/25 05:58:38;;;;;;;;;;;;;;;21.10;28.95;98077.25;5098058;28;1204;-79
2022/12/25 06:01:08;;;;;;;;;;;;;;;21.01;29.21;98077.06;5099755;28;1208;-79
2022/12/25 06:03:34;;;;;;;;;;;;;;;21.44;28.47;98073.22;5079714;28;1278;-78
2022/12/25 06:06:01;;;;;;;;;;;;;;;21.44;28.23;98084.56;5099772;28;1984;-79
2022/12/25 06:08:26;;;;;;;;;;;;;;;21.08;28.77;98093.84;5099273;28;982;-78
2022/12/25 06:10:52;;;;;;;;;;;;;;;20.90;29.17;98099.13;5100308;28;1154;-78
2022/12/25 06:13:17;;;;;;;;;;;;;;;20.93;28.99;98106.72;5099653;28;954;-78
2022/12/25 06:15:42;;;;;;;;;;;;;;;21.33;28.63;98108.25;5100102;28;936;-79
2022/12/25 06:18:08;;;;;;;;;;;;;;;21.54;28.49;98111.81;5080369;28;1148;-78
2022/12/25 06:20:33;;;;;;;;;;;;;;;21.58;28.12;98107.66;5100215;28;923;-79
2022/12/25 06:22:59;;;;;;;;;;;;;;;21.32;28.23;98112.31;5099494;28;1009;-79
2022/12/25 06:25:24;;;;;;;;;;;;;;;21.16;28.49;98115.09;5099606;28;1055;-79
2022/12/25 06:27:50;;;;;;;;;;;;;;;20.93;29.06;98123.69;5099724;28;1989;-78
2022/12/25 06:30:15;;;;;;;;;;;;;;;21.28;28.83;98122.91;5097933;28;1066;-79
2022/12/25 06:32:41;;;;;;;;;;;;;;;21.31;28.65;98127.72;5099785;28;1221;-78
2022/12/25 06:35:06;;;;;;;;;;;;;;;21.52;28.34;98131.28;5099063;28;1136;-78
2022/12/25 06:37:32;;;;;;;;;;;;;;;21.23;28.77;98139.59;5100025;28;933;-78
2022/12/25 06:39:57;;;;;;;;;;;;;;;21.06;28.83;98144.44;5099350;28;971;-78
2022/12/25 06:42:23;;;;;;;;;;;;;;;21.18;28.76;98151.44;5099760;28;871;-78
2022/12/25 06:44:49;;;;;;;;;;;;;;;21.38;28.49;98148.59;5099672;28;1216;-78
2022/12/25 06:47:15;;;;;;;;;;;;;;;21.57;28.06;98150.56;5099423;28;1965;-79
2022/12/25 06:49:40;;;;;;;;;;;;;;;21.25;28.63;98151.31;5098930;28;962;-78
2022/12/25 06:52:06;;;;;;;;;;;;;;;20.88;29.22;98152.50;5099634;28;980;-78
2022/12/25 06:54:31;;;;;;;;;;;;;;;21.06;28.95;98161.41;5098528;28;917;-78
2022/12/25 06:56:57;;;;;;;;;;;;;;;21.33;28.91;98159.19;5099634;28;869;-79
2022/12/25 06:59:22;;;;;;;;;;;;;;;21.26;28.77;98158.56;5099179;28;1177;-79
2022/12/25 07:01:48;;;;;;;;;;;;;;;21.41;28.37;98176.03;5099334;28;1090;-78
2022/12/25 07:04:23;;;;;;;;;;;;;;;21.35;28.76;98172.94;5076395;28;1106;-78
2022/12/25 07:06:48;;;;;;;;;;;;;;;21.12;29.04;98182.28;5059307;28;1894;-77
2022/12/25 07:09:13;;;;;;;;;;;;;;;20.92;29.13;98184.34;5076126;28;1026;-78
2022/12/25 07:11:39;;;;;;;;;;;;;;;21.11;29.30;98192.03;5076878;28;1064;-78
2022/12/25 07:14:04;;;;;;;;;;;;;;;21.45;28.51;98188.88;5058641;28;1027;-78
2022/12/25 07:16:30;;;;;;;;;;;;;;;21.61;28.54;98190.94;5076692;28;959;-79
2022/12/25 07:18:57;;;;;;;;;;;;;;;21.28;28.83;98190.81;5076105;28;967;-78
2022/12/25 07:21:23;;;;;;;;;;;;;;;21.12;28.99;98193.59;5076326;28;955;-78
2022/12/25 07:23:48;;;;;;;;;;;;;;;20.87;29.34;98182.03;5042150;28;1065;-78
2022/12/25 07:26:14;;;;;;;;;;;;;;;21.00;29.23;98186.59;5076203;28;1909;-79
2022/12/25 07:28:39;;;;;;;;;;;;;;;21.50;28.58;98201.69;5075683;28;1029;-78
2022/12/25 07:31:14;;;;;;;;;;;;;;;21.40;28.60;98203.56;5076542;28;1149;-79
2022/12/25 07:33:39;;;;;;;;;;;;;;;21.27;28.62;98214.69;5075159;28;937;-78
2022/12/25 07:36:05;;;;;;;;;;;;;;;21.10;29.07;98210.22;5087530;28;1216;-78
2022/12/25 07:38:31;;;;;;;;;;;;;;;20.78;29.58;98211.69;5077340;28;1039;-78
2022/12/25 07:40:56;;;;;;;;;;;;;;;20.64;29.80;98208.34;5081611;28;1405;-78
2022/12/25 07:43:22;;;;;;;;;;;;;;;21.23;29.06;98205.47;5096325;28;1000;-78
2022/12/25 07:45:47;;;;;;;;;;;;;;;21.40;28.72;98214.88;5097369;28;1911;-79
2022/12/25 07:48:13;;;;;;;;;;;;;;;21.93;27.84;98209.19;5096421;28;1177;-78
2022/12/25 07:50:38;;;;;;;;;;;;;;;21.33;28.75;98201.66;5098555;28;909;-78
2022/12/25 07:53:03;;;;;;;;;;;;;;;21.04;29.14;98206.31;5097894;28;910;-78
2022/12/25 07:55:29;;;;;;;;;;;;;;;20.85;29.64;98207.13;5098272;28;997;-78
2022/12/25 07:57:54;;;;;;;;;;;;;;;21.28;29.16;98213.47;5096438;28;1079;-78
2022/12/25 08:00:20;;;;;;;;;;;;;;;21.41;29.00;98221.34;5096593;28;1006;-79
2022/12/25 08:02:48;;;;;;;;;;;;;;;21.49;28.81;98217.88;5097438;28;1122;-78
2022/12/25 08:05:13;;;;;;;;;;;;;;;21.10;29.51;98227.22;5090479;28;1070;-78
2022/12/25 08:07:38;;;;;;;;;;;;;;;20.97;29.49;98229.09;5097516;28;1914;-78
2022/12/25 08:10:04;;;;;;;;;;;;;;;21.01;29.41;98227.00;5096186;28;1036;-78
2022/12/25 08:12:30;;;;;;;;;;;;;;;21.46;28.73;98223.63;5098660;28;942;-78
2022/12/25 08:14:55;;;;;;;;;;;;;;;21.43;28.90;98228.13;5097528;28;953;-78
2022/12/25 08:17:20;;;;;;;;;;;;;;;21.61;28.61;98232.63;5097749;28;887;-78
2022/12/25 08:19:46;;;;;;;;;;;;;;;21.23;29.35;98233.00;5096358;28;1030;-78
2022/12/25 08:22:11;;;;;;;;;;;;;;;21.15;29.17;98243.69;5098387;28;997;-78
2022/12/25 08:24:37;;;;;;;;;;;;;;;21.08;29.45;98244.59;5096533;28;932;-78
2022/12/25 08:27:02;;;;;;;;;;;;;;;21.20;29.53;98257.31;5097928;28;1972;-79
2022/12/25 08:29:28;;;;;;;;;;;;;;;21.39;29.08;98257.75;5097419;28;1143;-78
2022/12/25 08:31:53;;;;;;;;;;;;;;;21.37;28.99;98260.22;5096677;28;924;-78
2022/12/25 08:34:19;;;;;;;;;;;;;;;21.13;29.06;98254.63;5095443;28;933;-78
2022/12/25 08:36:44;;;;;;;;;;;;;;;20.93;29.63;98265.13;5098019;28;1055;-79
2022/12/25 08:39:10;;;;;;;;;;;;;;;20.79;29.71;98255.72;5097301;28;901;-79
2022/12/25 08:41:35;;;;;;;;;;;;;;;20.71;30.16;98254.22;5097774;28;940;-78
2022/12/25 08:44:01;;;;;;;;;;;;;;;21.07;29.45;98262.81;5097815;28;909;-79
2022/12/25 08:46:27;;;;;;;;;;;;;;;21.39;29.05;98247.22;5097896;28;1886;-79
2022/12/25 08:48:52;;;;;;;;;;;;;;;21.39;28.94;98254.91;5096812;28;1062;-79
2022/12/25 08:51:19;;;;;;;;;;;;;;;21.12;29.74;98258.69;5097172;28;1361;-78
2022/12/25 08:53:45;;;;;;;;;;;;;;;21.04;29.73;98254.44;5087791;28;1197;-78
2022/12/25 08:56:11;;;;;;;;;;;;;;;20.93;29.96;98259.47;5093554;28;1188;-79
2022/12/25 08:58:36;;;;;;;;;;;;;;;21.42;29.24;98251.22;5098782;28;1251;-78
2022/12/25 09:01:02;;;;;;;;;;;;;;;21.37;29.21;98255.38;5101178;28;1073;-79
2022/12/25 09:03:27;;;;;;;;;;;;;;;21.40;29.35;98248.84;5099431;28;1200;-78
2022/12/25 09:05:53;;;;;;;;;;;;;;;21.20;29.46;98245.19;5101096;28;1915;-79
2022/12/25 09:08:19;;;;;;;;;;;;;;;21.08;29.60;98246.63;5093885;28;1192;-78
2022/12/25 09:10:44;;;;;;;;;;;;;;;21.24;29.54;98241.06;5056125;28;1300;-78
2022/12/25 09:13:10;;;;;;;;;;;;;;;21.56;29.07;98233.94;5090771;28;1299;-79
2022/12/25 09:15:36;;;;;;;;;;;;;;;21.43;29.28;98244.31;5071376;28;1240;-78
2022/12/25 09:18:02;;;;;;;;;;;;;;;21.52;29.04;98236.84;5100646;28;1298;-79
2022/12/25 09:20:27;;;;;;;;;;;;;;;21.20;29.57;98240.34;5078160;28;1440;-78
2022/12/25 09:22:52;;;;;;;;;;;;;;;20.79;30.08;98238.75;5066744;28;1335;-79
2022/12/25 09:25:18;;;;;;;;;;;;;;;20.96;29.38;98241.66;5051571;28;1216;-78
2022/12/25 09:27:43;;;;;;;;;;;;;;;20.91;29.55;98247.81;5068656;28;1987;-79
2022/12/25 09:30:09;;;;;;;;;;;;;;;21.07;30.09;98250.69;5066530;28;1327;-78
2022/12/25 09:32:35;;;;;;;;;;;;;;;21.12;29.91;98238.88;5066443;28;1244;-79
2022/12/25 09:35:00;;;;;;;;;;;;;;;21.37;29.10;98246.09;5066855;28;1261;-79
2022/12/25 09:37:27;;;;;;;;;;;;;;;21.21;29.42;98247.59;5066749;28;1253;-79
2022/12/25 09:39:52;;;;;;;;;;;;;;;21.09;29.66;98239.78;5046027;28;1249;-79
2022/12/25 09:42:35;;;;;;;;;;;;;;;21.01;29.67;98243.97;5033335;28;1728;-79
2022/12/25 09:45:02;;;;;;;;;;;;;;;20.87;30.00;98241.41;5028491;28;1262;-78
2022/12/25 09:47:28;;;;;;;;;;;;;;;21.28;29.46;98238.94;5014274;28;1906;-78
2022/12/25 09:50:01;;;;;;;;;;;;;;;21.47;28.93;98233.72;5031506;28;1347;-79
2022/12/25 09:52:38;;;;;;;;;;;;;;;21.46;28.73;98234.97;5022811;28;1265;-78
2022/12/25 09:55:09;;;;;;;;;;;;;;;20.96;29.42;98247.31;5045930;28;1198;-78
2022/12/25 09:57:35;;;;;;;;;;;;;;;20.85;29.98;98246.72;5041310;28;1214;-78
2022/12/25 10:00:00;;;;;;;;;;;;;;;21.38;29.09;98239.19;5047267;28;1316;-79
2022/12/25 10:02:35;;;;;;;;;;;;;;;21.52;29.04;98239.66;5048832;28;1372;-79
2022/12/25 10:05:06;;;;;;;;;;;;;;;21.47;28.80;98242.22;5053862;28;1222;-78
2022/12/25 10:07:41;;;;;;;;;;;;;;;21.04;29.30;98246.72;5041150;28;1910;-79
2022/12/25 10:10:06;;;;;;;;;;;;;;;20.98;29.34;98244.81;5037448;28;1045;-79
2022/12/25 10:12:42;;;;;;;;;;;;;;;20.85;29.35;98246.72;5038195;28;931;-78
2022/12/25 10:15:26;;;;;;;;;;;;;;;21.07;29.78;98242.22;5037491;28;1135;-79
2022/12/25 10:17:52;;;;;;;;;;;;;;;21.33;28.82;98244.13;5053526;28;2181;-78
2022/12/25 10:20:23;;;;;;;;;;;;;;;21.35;29.07;98251.38;5057958;28;1046;-79
2022/12/25 10:22:50;;;;;;;;;;;;;;;21.33;29.16;98254.63;5061299;28;1317;-78
2022/12/25 10:25:17;;;;;;;;;;;;;;;21.01;29.19;98255.28;5060581;28;981;-79
2022/12/25 10:27:42;;;;;;;;;;;;;;;21.06;29.08;98249.13;5077794;28;1983;-79
2022/12/25 10:30:14;;;;;;;;;;;;;;;20.91;29.51;98259.13;5077107;28;1240;-79
2022/12/25 10:32:40;;;;;;;;;;;;;;;21.46;29.05;98254.78;5041691;28;1246;-79
2022/12/25 10:35:09;;;;;;;;;;;;;;;21.66;28.64;98252.72;5077161;28;1205;-79
2022/12/25 10:37:35;;;;;;;;;;;;;;;21.64;28.73;98258.00;5077016;28;1213;-79
2022/12/25 10:40:01;;;;;;;;;;;;;;;21.32;29.04;98253.03;5056166;28;1256;-79
2022/12/25 10:42:26;;;;;;;;;;;;;;;20.91;29.54;98261.94;5045731;28;1320;-79
2022/12/25 10:44:56;;;;;;;;;;;;;;;21.01;29.96;98261.72;5075948;28;1390;-79
2022/12/25 10:47:26;;;;;;;;;;;;;;;21.46;29.06;98263.28;5090184;28;1910;-79
2022/12/25 10:49:51;;;;;;;;;;;;;;;21.40;29.01;98271.50;5054583;28;1264;-79
2022/12/25 10:52:17;;;;;;;;;;;;;;;21.40;28.94;98259.34;5099579;28;1338;-79
2022/12/25 10:54:43;;;;;;;;;;;;;;;21.31;28.89;98252.25;5099622;28;1246;-78
2022/12/25 10:57:08;;;;;;;;;;;;;;;21.01;29.41;98266.59;5099502;28;1192;-79
2022/12/25 10:59:35;;;;;;;;;;;;;;;21.35;29.18;98257.84;5098472;28;1366;-79
2022/12/25 11:02:08;;;;;;;;;;;;;;;21.52;28.85;98261.50;5092282;28;1277;-78
2022/12/25 11:04:33;;;;;;;;;;;;;;;21.61;28.56;98270.22;5090670;28;1358;-78
2022/12/25 11:07:18;;;;;;;;;;;;;;;21.20;29.07;98274.28;5089335;28;1971;-79
2022/12/25 11:09:52;;;;;;;;;;;;;;;20.90;29.39;98266.00;5096209;28;1185;-78
2022/12/25 11:12:18;;;;;;;;;;;;;;;20.75;29.58;98271.16;5089566;28;1295;-79
2022/12/25 11:14:51;;;;;;;;;;;;;;;21.16;29.41;98273.56;5089395;28;1240;-78
2022/12/25 11:17:17;;;;;;;;;;;;;;;21.32;28.83;98265.16;5088057;28;1386;-79
2022/12/25 11:19:49;;;;;;;;;;;;;;;21.39;28.65;98271.91;5088424;28;1319;-79
2022/12/25 11:22:15;;;;;;;;;;;;;;;21.22;29.01;98274.66;5092233;28;1200;-78
2022/12/25 11:24:41;;;;;;;;;;;;;;;21.16;28.95;98265.06;5097189;28;900;-78
2022/12/25 11:27:06;;;;;;;;;;;;;;;21.33;29.07;98272.41;5099217;28;1905;-78
2022/12/25 11:29:32;;;;;;;;;;;;;;;21.18;29.14;98271.09;5098268;28;1204;-79
2022/12/25 11:31:57;;;;;;;;;;;;;;;21.42;28.58;98279.53;5098766;28;1330;-79
2022/12/25 11:34:43;;;;;;;;;;;;;;;21.16;29.02;98284.88;5088101;28;1307;-78
2022/12/25 11:37:10;;;;;;;;;;;;;;;21.25;28.79;98279.44;5095985;28;1324;-78
2022/12/25 11:39:36;;;;;;;;;;;;;;;21.06;28.95;98280.22;5097085;28;957;-79
2022/12/25 11:42:14;;;;;;;;;;;;;;;21.11;29.21;98281.75;5098190;28;1275;-79
2022/12/25 11:44:56;;;;;;;;;;;;;;;21.42;28.61;98282.38;5097649;28;1255;-78
2022/12/25 11:47:22;;;;;;;;;;;;;;;21.39;28.56;98283.22;5097493;28;1967;-78
2022/12/25 11:49:49;;;;;;;;;;;;;;;21.19;28.96;98280.38;5097911;28;979;-78
2022/12/25 11:52:16;;;;;;;;;;;;;;;21.05;29.06;98284.31;5097997;28;989;-78
2022/12/25 11:55:10;;;;;;;;;;;;;;;20.94;29.56;98280.91;5096064;28;923;-78
2022/12/25 11:57:36;;;;;;;;;;;;;;;21.24;29.27;98285.53;5015632;28;1158;-78
2022/12/25 12:00:05;;;;;;;;;;;;;;;21.49;28.67;98296.34;4998770;28;965;-78
2022/12/25 12:02:43;;;;;;;;;;;;;;;21.62;28.31;98294.47;4983414;28;1102;-78
2022/12/25 12:05:14;;;;;;;;;;;;;;;21.27;28.70;98315.78;5015276;28;1011;-79
2022/12/25 12:07:45;;;;;;;;;;;;;;;21.13;29.09;98319.69;5015541;28;1913;-79
2022/12/25 12:10:14;;;;;;;;;;;;;;;21.11;29.27;98316.50;4998590;28;985;-78
2022/12/25 12:12:40;;;;;;;;;;;;;;;21.29;29.04;98322.59;4999156;28;1126;-79
2022/12/25 12:15:07;;;;;;;;;;;;;;;21.38;28.63;98318.44;5014554;28;1034;-79
2022/12/25 12:17:33;;;;;;;;;;;;;;;21.23;28.59;98321.50;5015137;28;966;-79
2022/12/25 12:20:09;;;;;;;;;;;;;;;21.27;28.69;98325.06;4998400;28;982;-79
2022/12/25 12:22:34;;;;;;;;;;;;;;;21.08;28.97;98328.69;5015090;28;983;-78
2022/12/25 12:25:03;;;;;;;;;;;;;;;21.01;29.17;98328.84;4998189;28;1247;-79
2022/12/25 12:27:35;;;;;;;;;;;;;;;21.52;28.30;98318.94;4996003;28;1891;-78
2022/12/25 12:30:00;;;;;;;;;;;;;;;21.55;28.61;98331.41;4997971;28;1100;-78
2022/12/25 12:32:28;;;;;;;;;;;;;;;21.45;28.67;98330.44;5015370;28;969;-78
2022/12/25 12:34:54;;;;;;;;;;;;;;;21.32;28.75;98327.44;5086898;28;1027;-79
2022/12/25 12:37:22;;;;;;;;;;;;;;;21.24;28.68;98331.63;5096176;28;966;-78
2022/12/25 12:39:50;;;;;;;;;;;;;;;20.86;29.39;98333.16;5096931;28;874;-79
2022/12/25 12:42:24;;;;;;;;;;;;;;;21.30;29.04;98335.56;5079579;28;1646;-79
2022/12/25 12:44:50;;;;;;;;;;;;;;;21.47;28.64;98342.09;5095452;28;1104;-78
2022/12/25 12:47:34;;;;;;;;;;;;;;;21.61;28.37;98343.84;5096531;28;1905;-78
2022/12/25 12:50:00;;;;;;;;;;;;;;;21.12;29.09;98337.91;5096932;28;890;-78
2022/12/25 12:52:31;;;;;;;;;;;;;;;21.22;28.98;98341.78;5097323;28;952;-79
2022/12/25 12:55:07;;;;;;;;;;;;;;;20.95;29.16;98353.19;5096650;28;938;-78
2022/12/25 12:57:38;;;;;;;;;;;;;;;21.10;29.13;98353.75;5097172;28;887;-79
2022/12/25 13:00:08;;;;;;;;;;;;;;;21.55;28.22;98356.88;5095430;28;996;-79
2022/12/25 13:02:33;;;;;;;;;;;;;;;21.54;28.14;98361.75;5096954;28;1279;-79
2022/12/25 13:05:11;;;;;;;;;;;;;;;21.09;28.80;98358.59;5096111;28;922;-79
2022/12/25 13:07:51;;;;;;;;;;;;;;;20.87;29.19;98363.84;5096506;28;1989;-79
2022/12/25 13:10:22;;;;;;;;;;;;;;;20.98;28.91;98374.94;5077387;28;1204;-78
2022/12/25 13:12:55;;;;;;;;;;;;;;;21.28;28.93;98371.16;5095104;28;1148;-79
2022/12/25 13:15:22;;;;;;;;;;;;;;;21.45;28.21;98372.06;5095650;28;1083;-79
2022/12/25 13:17:48;;;;;;;;;;;;;;;21.42;28.54;98378.63;5073816;28;953;-78
2022/12/25 13:20:19;;;;;;;;;;;;;;;21.19;28.69;98387.91;5040574;28;937;-78
2022/12/25 13:22:44;;;;;;;;;;;;;;;20.93;28.82;98392.41;5057086;28;1115;-78
2022/12/25 13:25:17;;;;;;;;;;;;;;;21.00;28.99;98395.94;5073906;28;919;-79
2022/12/25 13:27:43;;;;;;;;;;;;;;;21.07;29.11;98390.13;5057880;28;1973;-79
2022/12/25 13:30:16;;;;;;;;;;;;;;;21.45;28.11;98389.06;5073889;28;1114;-79
2022/12/25 13:32:41;;;;;;;;;;;;;;;21.42;28.13;98389.94;5057940;28;961;-78
2022/12/25 13:35:16;;;;;;;;;;;;;;;21.19;28.73;98402.88;5073524;28;1052;-78
2022/12/25 13:37:41;;;;;;;;;;;;;;;21.00;28.62;98412.13;5057395;28;1050;-78
2022/12/25 13:40:12;;;;;;;;;;;;;;;20.92;28.77;98410.63;5042364;28;999;-78
2022/12/25 13:42:40;;;;;;;;;;;;;;;21.05;28.97;98408.78;5061434;28;956;-78
2022/12/25 13:45:17;;;;;;;;;;;;;;;21.26;28.67;98413.25;5060961;28;1050;-79
2022/12/25 13:47:44;;;;;;;;;;;;;;;21.27;28.76;98421.31;5079022;28;1972;-78
2022/12/25 13:50:15;;;;;;;;;;;;;;;21.09;28.80;98415.19;5099543;28;954;-79
2022/12/25 13:52:41;;;;;;;;;;;;;;;21.09;28.91;98423.69;5099919;28;1096;-78
2022/12/25 13:55:11;;;;;;;;;;;;;;;20.80;29.04;98426.19;5099144;28;1018;-79
2022/12/25 13:57:37;;;;;;;;;;;;;;;21.12;28.99;98431.28;5081913;28;947;-79
2022/12/25 14:00:03;;;;;;;;;;;;;;;21.39;28.26;98430.41;5098260;28;1029;-78
2022/12/25 14:02:31;;;;;;;;;;;;;;;21.44;28.51;98435.59;5100076;28;1001;-78
2022/12/25 14:04:57;;;;;;;;;;;;;;;21.19;28.46;98445.31;5098214;28;910;-78
2022/12/25 14:07:25;;;;;;;;;;;;;;;21.05;28.79;98443.53;5100160;28;1898;-79
2022/12/25 14:09:58;;;;;;;;;;;;;;;20.85;29.05;98447.53;5098013;28;866;-78
2022/12/25 14:12:23;;;;;;;;;;;;;;;20.86;29.10;98457.59;5100350;28;889;-78
2022/12/25 14:14:49;;;;;;;;;;;;;;;20.93;29.39;98451.81;5099358;28;914;-77
2022/12/25 14:17:15;;;;;;;;;;;;;;;21.35;28.59;98449.50;5098390;28;1008;-78
2022/12/25 14:19:40;;;;;;;;;;;;;;;21.42;28.41;98449.38;5099232;28;948;-79
2022/12/25 14:22:09;;;;;;;;;;;;;;;21.16;28.80;98459.53;5099917;28;959;-78
2022/12/25 14:24:35;;;;;;;;;;;;;;;20.87;29.43;98457.16;5098387;28;925;-78
2022/12/25 14:27:14;;;;;;;;;;;;;;;20.93;29.14;98465.97;5098683;28;1972;-78
2022/12/25 14:29:41;;;;;;;;;;;;;;;21.32;28.94;98473.81;5096952;28;1147;-79
2022/12/25 14:32:07;;;;;;;;;;;;;;;21.08;29.19;98475.81;5098002;28;1169;-79
2022/12/25 14:34:32;;;;;;;;;;;;;;;21.36;28.73;98482.25;5097468;28;1721;-78